Metar/Speci

METEOROLOGICAL AERODROME REPORT
STASIUN METEOROLOGI HANG NADIM BATAM

ADDS - METARS form results

(1017 UTC 16 October 2019)
Data provider http://aviationweather.gov/metar/data/
 
METAR text: WIDD 161000Z 07002KT 9999 FEW014 29/24 Q1009
Conditions at: WIDD (HANG NADIM , ID) observed 1000 UTC 16 October 2019
Temperature: 29.0°C (84°F)
Dewpoint: 24.0°C (75°F) [RH = 74%]
Pressure (altimeter): 29.79 inches Hg (1009.0 mb)
Winds: from the ENE (70 degrees) at 2 MPH (2 knots; 1.0 m/s)
Visibility: 6 or more miles (10+ km)
Ceiling: at least 12,000 feet AGL
Clouds: few clouds at 1400 feet AGL
Weather: no significant weather observed at this time

METAR text: WIDD 160930Z 09002KT 9999 FEW014 29/24 Q1009
Conditions at: WIDD (HANG NADIM , ID) observed 0930 UTC 16 October 2019
Temperature: 29.0°C (84°F)
Dewpoint: 24.0°C (75°F) [RH = 74%]
Pressure (altimeter): 29.79 inches Hg (1009.0 mb)
Winds: from the E (90 degrees) at 2 MPH (2 knots; 1.0 m/s)
Visibility: 6 or more miles (10+ km)
Ceiling: at least 12,000 feet AGL
Clouds: few clouds at 1400 feet AGL
Weather: no significant weather observed at this time

Forecast for: WIDD (HANG NADIM , ID)
Text: TAF WIDD 160500Z 1606/1706 08005KT 9999 FEW014
Forecast period: 0600 UTC 16 October 2019 to 0600 UTC 17 October 2019
Forecast type: FROM: standard forecast or significant change
Winds: from the E (80 degrees) at 6 MPH (5 knots; 2.6 m/s)
Visibility: 6 or more miles 10+ km)
Ceiling: at least 12,000 feet AGL
Clouds: few clouds at 1400 feet AGL
Weather: no significant weather forecast for this period
Text: PROB30
Forecast period: 0600 to 0900 UTC 16 October 2019
Forecast type: TEMPORARY: The following changes expected for less than half the time period
Visibility: missing
Ceiling: 1500 feet AGL
Clouds: few clouds at 1400 feet AGL
broken clouds at 1500 feet AGL
Weather: -TSRA  (light rain associated with thunderstorm(s))

Informasi METAR/SPECI dapat diakses juga di http://aviation.bmkg.go.id